CheckWX is a tool to help pilots better visualize weather data.  It is not intended as a substitute for an official pre-flight weather briefing.

00:22:37 UTC

KDDC METAR
Dodge City Regional Airport
Dodge City, Kansas, USA
Current

31 mins ago

KDDC 112352Z AUTO 36009KT 10SM CLR M08/M16 A3059 RMK AO2 SLP395 60000 T10781161 11039 21078 51016 $
Observed
Nov-11 @ 23:52 UTC
Wind
  • 360° at 9 KTS
Visibility
10 SM
Flight Rules
VFR
Cloud Levels
  • Clear skies
Temperature
-8°C / 18°F
Dewpoint
-16°C / 3°F
Humidity
53%
Altimeter
30.59" Hg
Pressure
1035.92 hPa
Previous

2 hours ago

KDDC 112252Z AUTO 36016G25KT 10SM CLR M06/M17 A3058 RMK AO2 PK WND 36030/2207 SLP387 T10561167 $
Observed
Nov-11 @ 22:52 UTC
Wind
  • 360° at 16 KTS
  • Gusting to 25 KTS
Visibility
10 SM
Flight Rules
VFR
Cloud Levels
  • Clear skies
Temperature
-6°C / 21°F
Dewpoint
-17°C / 1°F
Humidity
42%
Altimeter
30.58" Hg
Pressure
1035.52 hPa
Previous

3 hours ago

KDDC 112152Z AUTO 36018G30KT 10SM CLR M04/M17 A3057 RMK AO2 PK WND 35031/2126 SLP380 T10441167 $
Observed
Nov-11 @ 21:52 UTC
Wind
  • 360° at 18 KTS
  • Gusting to 30 KTS
Visibility
10 SM
Flight Rules
VFR
Cloud Levels
  • Clear skies
Temperature
-4°C / 25°F
Dewpoint
-17°C / 1°F
Humidity
36%
Altimeter
30.57" Hg
Pressure
1035.22 hPa